createdAt,value
2022-10-05T00:01:56.815Z,2.50
2022-10-05T00:04:29.961Z,2.42
2022-10-05T00:07:04.680Z,2.50
2022-10-05T00:09:36.563Z,2.15
2022-10-05T00:12:15.901Z,2.28
2022-10-05T00:14:49.292Z,2.40
2022-10-05T00:17:20.983Z,2.10
2022-10-05T00:19:54.775Z,2.20
2022-10-05T00:22:26.146Z,2.17
2022-10-05T00:25:00.663Z,2.40
2022-10-05T00:27:36.674Z,2.08
2022-10-05T00:30:16.628Z,2.20
2022-10-05T00:32:46.867Z,2.20
2022-10-05T00:35:20.493Z,2.17
2022-10-05T00:37:56.010Z,2.30
2022-10-05T00:40:39.759Z,2.08
2022-10-05T00:43:38.462Z,2.08
2022-10-05T00:46:18.705Z,2.28
2022-10-05T00:48:56.919Z,2.00
2022-10-05T00:51:32.772Z,2.13
2022-10-05T00:54:18.866Z,2.25
2022-10-05T00:57:11.824Z,1.90
2022-10-05T00:59:54.499Z,2.50
2022-10-05T01:02:35.832Z,1.98
2022-10-05T01:05:15.748Z,2.80
2022-10-05T01:07:54.474Z,1.98
2022-10-05T01:10:33.425Z,1.80
2022-10-05T01:13:09.046Z,1.90
2022-10-05T01:15:46.284Z,2.10
2022-10-05T01:18:22.223Z,1.80
2022-10-05T01:21:05.832Z,2.60
2022-10-05T01:24:09.200Z,2.47
2022-10-05T01:26:58.953Z,2.20
2022-10-05T01:29:36.407Z,2.80
2022-10-05T01:32:11.038Z,3.25
2022-10-05T01:34:44.318Z,3.55
2022-10-05T01:37:22.157Z,3.13
2022-10-05T01:40:02.135Z,3.53
2022-10-05T01:42:43.586Z,4.40
2022-10-05T01:45:26.642Z,4.70
2022-10-05T01:48:02.578Z,5.00
2022-10-05T01:50:49.873Z,4.68
2022-10-05T01:53:30.726Z,5.07
2022-10-05T01:56:08.825Z,4.70
2022-10-05T01:58:47.285Z,5.38
2022-10-05T02:01:27.475Z,4.90
2022-10-05T02:04:06.270Z,4.82
2022-10-05T02:06:43.380Z,4.95
2022-10-05T02:09:19.109Z,5.25
2022-10-05T02:11:55.177Z,5.25
2022-10-05T02:14:30.442Z,4.68
2022-10-05T02:17:08.468Z,4.93
2022-10-05T02:19:43.677Z,5.05
2022-10-05T02:22:18.973Z,5.97
2022-10-05T02:24:53.863Z,5.45
2022-10-05T02:27:28.850Z,5.00
2022-10-05T02:30:02.819Z,5.00
2022-10-05T02:32:40.658Z,5.40
2022-10-05T02:35:16.953Z,5.75
2022-10-05T02:37:57.473Z,5.70
2022-10-05T02:40:38.461Z,6.10
2022-10-05T02:43:21.161Z,6.60
2022-10-05T02:46:00.553Z,5.70
2022-10-05T02:48:43.569Z,5.43
2022-10-05T02:51:23.128Z,6.07
2022-10-05T02:54:04.087Z,5.65
2022-10-05T02:56:48.404Z,5.82
2022-10-05T02:59:24.844Z,5.97
2022-10-05T03:01:58.035Z,5.47
2022-10-05T03:04:41.293Z,5.53
2022-10-05T03:07:17.105Z,5.38
2022-10-05T03:09:55.674Z,5.68
2022-10-05T03:12:51.321Z,5.45
2022-10-05T03:15:45.054Z,5.30
2022-10-05T03:18:29.868Z,5.05
2022-10-05T03:21:13.094Z,5.05
2022-10-05T03:23:56.109Z,4.88
2022-10-05T03:26:40.438Z,4.88
2022-10-05T03:29:18.890Z,5.15
2022-10-05T03:31:54.478Z,4.72
2022-10-05T03:34:30.970Z,4.28
2022-10-05T03:37:10.106Z,4.78
2022-10-05T03:39:44.343Z,5.00
2022-10-05T03:42:23.178Z,4.85
2022-10-05T03:44:59.842Z,4.75
2022-10-05T03:47:38.880Z,4.43
2022-10-05T03:50:19.790Z,4.72
2022-10-05T03:52:57.184Z,5.13
2022-10-05T03:55:34.072Z,3.85
2022-10-05T03:58:14.063Z,4.82
2022-10-05T04:00:48.497Z,4.50
2022-10-05T04:03:24.832Z,4.10
2022-10-05T04:05:58.742Z,4.18
2022-10-05T04:08:38.118Z,3.80
2022-10-05T04:11:12.806Z,3.97
2022-10-05T04:13:47.191Z,4.15
2022-10-05T04:16:22.249Z,3.83
2022-10-05T04:18:57.471Z,4.00
2022-10-05T04:21:31.992Z,3.97
2022-10-05T04:24:09.514Z,3.42
2022-10-05T04:26:46.945Z,3.55
2022-10-05T04:29:27.312Z,3.40
2022-10-05T04:32:11.971Z,3.17
2022-10-05T04:34:52.228Z,2.85
2022-10-05T04:37:26.497Z,3.00
2022-10-05T04:40:11.945Z,3.28
2022-10-05T04:42:49.234Z,2.60
2022-10-05T04:45:32.298Z,2.55
2022-10-05T04:48:17.694Z,2.43
2022-10-05T04:51:02.322Z,2.58
2022-10-05T04:53:36.769Z,2.17
2022-10-05T04:56:13.835Z,2.05
2022-10-05T04:59:00.356Z,2.75
2022-10-05T05:01:50.781Z,2.30
2022-10-05T05:04:42.441Z,2.33
2022-10-05T05:07:26.474Z,2.45
2022-10-05T05:10:18.396Z,2.13
2022-10-05T05:13:07.120Z,2.08
2022-10-05T05:15:48.607Z,2.00
2022-10-05T05:18:48.996Z,2.22
2022-10-05T05:21:33.045Z,2.00
2022-10-05T05:24:08.391Z,1.98
2022-10-05T05:26:52.637Z,2.13
2022-10-05T05:29:33.763Z,1.77
2022-10-05T05:32:11.487Z,4.50
2022-10-05T05:34:56.106Z,2.70
2022-10-05T05:37:34.907Z,2.20
2022-10-05T05:40:17.907Z,2.30
2022-10-05T05:42:56.103Z,2.00
2022-10-05T05:45:35.097Z,1.80
2022-10-05T05:48:09.379Z,2.40
2022-10-05T05:50:50.913Z,1.90
2022-10-05T05:53:24.711Z,2.13
2022-10-05T05:56:00.649Z,1.80
2022-10-05T05:58:36.108Z,2.17
2022-10-05T06:01:30.544Z,2.15
2022-10-05T06:04:07.049Z,2.10
2022-10-05T06:06:41.784Z,1.98
2022-10-05T06:09:19.847Z,2.22
2022-10-05T06:11:54.939Z,2.05
2022-10-05T06:14:31.779Z,2.65
2022-10-05T06:17:10.293Z,2.42
2022-10-05T06:19:41.842Z,2.50
2022-10-05T06:22:22.392Z,2.65
2022-10-05T06:25:06.705Z,2.78
2022-10-05T06:27:40.751Z,2.60
2022-10-05T06:30:14.012Z,3.05
2022-10-05T06:33:07.743Z,2.95
2022-10-05T06:35:54.025Z,2.90
2022-10-05T06:38:47.086Z,3.08
2022-10-05T06:41:27.658Z,4.13
2022-10-05T06:44:01.929Z,2.90
2022-10-05T06:46:35.308Z,2.95
2022-10-05T06:49:21.068Z,3.33
2022-10-05T06:51:58.354Z,3.50
2022-10-05T06:54:50.867Z,4.00
2022-10-05T06:57:40.797Z,3.25
2022-10-05T07:00:20.501Z,3.00
2022-10-05T07:02:57.312Z,3.10
2022-10-05T07:05:59.576Z,2.60
2022-10-05T07:08:48.601Z,2.83
2022-10-05T07:11:31.900Z,2.90
2022-10-05T07:14:20.290Z,2.50
2022-10-05T07:17:04.588Z,2.95
2022-10-05T07:19:44.017Z,2.50
2022-10-05T07:22:37.958Z,2.78
2022-10-05T07:25:16.378Z,2.95
2022-10-05T07:27:53.610Z,2.88
2022-10-05T07:30:23.689Z,2.65
2022-10-05T07:33:02.455Z,2.80
2022-10-05T07:35:55.048Z,2.90
2022-10-05T07:38:33.103Z,2.90
2022-10-05T07:41:08.978Z,2.83
2022-10-05T07:44:03.026Z,3.38
2022-10-05T07:46:45.791Z,3.00
2022-10-05T07:49:24.777Z,3.00
2022-10-05T07:51:59.990Z,3.40
2022-10-05T07:54:38.019Z,3.22
2022-10-05T07:57:23.207Z,3.33
2022-10-05T08:00:00.490Z,3.00
2022-10-05T08:02:39.230Z,3.10
2022-10-05T08:05:16.301Z,3.05
2022-10-05T08:07:46.302Z,3.10
2022-10-05T08:10:28.872Z,3.47
2022-10-05T08:13:10.932Z,3.40
2022-10-05T08:15:44.110Z,3.03
2022-10-05T08:18:19.515Z,3.50
2022-10-05T08:20:51.042Z,3.65
2022-10-05T08:23:26.586Z,4.25
2022-10-05T08:26:08.146Z,3.70
2022-10-05T08:28:47.194Z,3.75
2022-10-05T08:31:23.136Z,3.00
2022-10-05T08:34:07.893Z,3.53
2022-10-05T08:36:54.124Z,3.30
2022-10-05T08:39:27.406Z,3.38
2022-10-05T08:42:29.589Z,3.30
2022-10-05T08:45:32.655Z,3.03
2022-10-05T08:48:30.284Z,3.25
2022-10-05T08:51:45.062Z,3.25
2022-10-05T08:54:40.979Z,3.15
2022-10-05T08:57:29.311Z,3.13
2022-10-05T09:00:12.693Z,3.38
2022-10-05T09:03:08.999Z,2.92
2022-10-05T09:06:16.293Z,2.50
2022-10-05T09:09:11.675Z,2.70
2022-10-05T09:11:48.947Z,2.70
2022-10-05T09:15:01.314Z,2.50
2022-10-05T09:18:10.533Z,2.65
2022-10-05T09:20:49.522Z,2.70
2022-10-05T09:23:38.845Z,2.97
2022-10-05T09:26:31.351Z,2.80
2022-10-05T09:29:30.786Z,2.38
2022-10-05T09:32:23.884Z,2.85
2022-10-05T09:35:17.978Z,2.83
2022-10-05T09:38:11.141Z,2.80
2022-10-05T09:41:10.947Z,2.63
2022-10-05T09:44:19.864Z,2.45
2022-10-05T09:47:17.510Z,2.60
2022-10-05T09:50:06.833Z,2.35
2022-10-05T09:53:08.181Z,2.30
2022-10-05T09:56:13.435Z,2.35
2022-10-05T09:59:21.225Z,2.97
2022-10-05T10:02:23.063Z,2.90
2022-10-05T10:05:15.427Z,2.20
2022-10-05T10:08:08.190Z,3.00
2022-10-05T10:11:04.322Z,2.92
2022-10-05T10:14:02.442Z,2.88
2022-10-05T10:16:40.740Z,3.38
2022-10-05T10:19:31.605Z,3.22
2022-10-05T10:22:32.657Z,3.28
2022-10-05T10:25:23.250Z,3.83
2022-10-05T10:28:14.104Z,4.25
2022-10-05T10:30:57.736Z,3.95
2022-10-05T10:33:52.812Z,3.45
2022-10-05T10:36:34.950Z,3.78
2022-10-05T10:39:10.853Z,4.15
2022-10-05T10:42:00.744Z,3.70
2022-10-05T10:45:00.500Z,4.30
2022-10-05T10:47:55.007Z,4.18
2022-10-05T10:51:00.514Z,3.60
2022-10-05T10:54:12.383Z,4.13
2022-10-05T10:57:04.241Z,4.15
2022-10-05T11:00:17.573Z,3.97
2022-10-05T11:03:11.585Z,4.70
2022-10-05T11:08:57.662Z,3.97
2022-10-05T11:12:03.478Z,4.80
2022-10-05T11:15:00.832Z,4.50
2022-10-05T11:17:54.193Z,4.80
2022-10-05T11:20:56.156Z,5.57
2022-10-05T11:23:56.855Z,4.82
2022-10-05T11:26:42.846Z,4.72
2022-10-05T11:29:44.339Z,4.50
2022-10-05T11:32:36.402Z,4.65
2022-10-05T11:35:31.296Z,4.50
2022-10-05T11:38:18.663Z,4.63
2022-10-05T11:41:13.929Z,4.45
2022-10-05T11:44:12.944Z,4.45
2022-10-05T11:46:55.105Z,5.43
2022-10-05T11:49:38.574Z,5.13
2022-10-05T11:52:16.788Z,5.93
2022-10-05T11:55:16.164Z,6.03
2022-10-05T11:57:52.198Z,4.50
2022-10-05T12:00:23.988Z,5.00
2022-10-05T12:03:40.152Z,4.78
2022-10-05T12:06:36.835Z,4.28
2022-10-05T12:09:21.629Z,5.13
2022-10-05T12:12:06.260Z,4.93
2022-10-05T12:14:48.325Z,5.20
2022-10-05T12:17:26.396Z,5.03
2022-10-05T12:20:03.026Z,5.15
2022-10-05T12:22:37.311Z,4.85
2022-10-05T12:25:21.720Z,5.30
2022-10-05T12:27:54.886Z,5.55
2022-10-05T12:30:32.556Z,5.38
2022-10-05T12:33:10.171Z,4.35
2022-10-05T12:35:49.234Z,4.60
2022-10-05T12:38:28.626Z,5.30
2022-10-05T12:41:08.171Z,4.32
2022-10-05T12:43:49.964Z,4.57
2022-10-05T12:46:30.043Z,4.50
2022-10-05T12:49:23.354Z,4.97
2022-10-05T12:52:01.405Z,4.43
2022-10-05T12:54:46.157Z,4.80
2022-10-05T12:57:22.728Z,4.07
2022-10-05T12:59:59.728Z,4.28
2022-10-05T13:02:42.485Z,4.85
2022-10-05T13:05:26.680Z,4.20
2022-10-05T13:08:17.886Z,4.30
2022-10-05T13:10:51.305Z,4.65
2022-10-05T13:13:35.849Z,4.63
2022-10-05T13:16:15.361Z,4.68
2022-10-05T13:18:58.896Z,6.85
2022-10-05T13:21:40.842Z,4.47
2022-10-05T13:24:22.079Z,4.75
2022-10-05T13:26:57.707Z,5.07
2022-10-05T13:29:35.142Z,4.30
2022-10-05T13:32:10.451Z,4.30
2022-10-05T13:34:46.505Z,4.65
2022-10-05T13:37:24.886Z,3.95
2022-10-05T13:40:10.424Z,4.28
2022-10-05T13:42:48.455Z,3.58
2022-10-05T13:45:24.611Z,3.45
2022-10-05T13:48:09.875Z,2.83
2022-10-05T13:50:48.257Z,2.97
2022-10-05T13:53:24.454Z,3.20
2022-10-05T13:56:02.999Z,2.70
2022-10-05T13:58:42.837Z,2.90
2022-10-05T14:01:19.343Z,2.67
2022-10-05T14:04:07.752Z,2.30
2022-10-05T14:06:40.755Z,3.08
2022-10-05T14:09:15.557Z,2.38
2022-10-05T14:11:56.593Z,2.70
2022-10-05T14:14:28.408Z,2.92
2022-10-05T14:16:59.807Z,2.60
2022-10-05T14:19:33.820Z,2.72
2022-10-05T14:22:05.328Z,3.05
2022-10-05T14:24:43.970Z,2.55
2022-10-05T14:27:26.551Z,3.03
2022-10-05T14:30:00.623Z,3.30
2022-10-05T14:32:34.624Z,3.67
2022-10-05T14:35:17.546Z,3.45
2022-10-05T14:37:53.378Z,3.83
2022-10-05T14:40:29.879Z,3.88
2022-10-05T14:43:19.040Z,4.13
2022-10-05T14:46:01.666Z,3.95
2022-10-05T14:48:40.603Z,3.60
2022-10-05T14:51:14.482Z,3.75
2022-10-05T14:53:47.105Z,3.60
2022-10-05T14:56:33.880Z,3.67
2022-10-05T14:59:37.642Z,3.53
2022-10-05T15:02:26.912Z,3.30
2022-10-05T15:05:04.420Z,3.33
2022-10-05T15:07:38.975Z,3.00
2022-10-05T15:10:30.119Z,3.40
2022-10-05T15:13:11.323Z,3.08
2022-10-05T15:15:50.148Z,3.15
2022-10-05T15:18:31.833Z,3.25
2022-10-05T15:21:22.646Z,3.38
2022-10-05T15:23:57.628Z,3.45
2022-10-05T15:26:43.345Z,3.45
2022-10-05T15:29:26.103Z,2.92
2022-10-05T15:32:07.812Z,3.40
2022-10-05T15:34:44.774Z,3.40
2022-10-05T15:37:19.875Z,3.08
2022-10-05T15:39:54.026Z,2.85
2022-10-05T15:42:32.913Z,3.30
2022-10-05T15:45:11.261Z,3.20
2022-10-05T15:47:54.785Z,3.20
2022-10-05T15:50:28.266Z,3.80
2022-10-05T15:53:04.754Z,3.45
2022-10-05T15:55:47.277Z,3.00
2022-10-05T15:58:45.158Z,3.75
2022-10-05T16:01:18.951Z,3.13
2022-10-05T16:03:53.898Z,3.65
2022-10-05T16:06:48.651Z,3.17
2022-10-05T16:09:32.634Z,3.30
2022-10-05T16:12:18.729Z,3.50
2022-10-05T16:15:03.226Z,3.40
2022-10-05T16:17:51.151Z,3.45
2022-10-05T16:20:45.340Z,3.30
2022-10-05T16:23:26.778Z,3.67
2022-10-05T16:26:09.121Z,3.55
2022-10-05T16:28:53.079Z,3.85
2022-10-05T16:31:31.096Z,3.30
2022-10-05T16:34:07.308Z,3.80
2022-10-05T16:36:53.351Z,3.47
2022-10-05T16:39:44.902Z,4.03
2022-10-05T16:42:22.362Z,3.80
2022-10-05T16:44:58.888Z,3.70
2022-10-05T16:47:43.737Z,3.50
2022-10-05T16:50:24.224Z,3.50
2022-10-05T16:53:03.245Z,3.40
2022-10-05T16:55:37.338Z,3.28
2022-10-05T16:58:18.792Z,3.80
2022-10-05T17:01:07.630Z,3.65
2022-10-05T17:03:50.733Z,3.33
2022-10-05T17:06:39.194Z,3.28
2022-10-05T17:09:29.049Z,3.80
2022-10-05T17:12:15.311Z,4.13
2022-10-05T17:14:57.811Z,4.13
2022-10-05T17:17:51.283Z,4.13
2022-10-05T17:20:32.258Z,4.82
2022-10-05T17:23:08.138Z,4.70
2022-10-05T17:25:48.637Z,4.63
2022-10-05T17:28:25.420Z,4.35
2022-10-05T17:31:18.314Z,3.58
2022-10-05T17:34:18.035Z,4.55
2022-10-05T17:36:54.286Z,4.65
2022-10-05T17:39:26.030Z,4.55
2022-10-05T17:42:34.405Z,4.82
2022-10-05T17:45:39.036Z,4.43
2022-10-05T17:48:12.972Z,4.47
2022-10-05T17:50:57.957Z,3.95
2022-10-05T17:53:51.713Z,4.20
2022-10-05T17:56:22.655Z,4.80
2022-10-05T17:59:02.024Z,4.65
2022-10-05T18:01:42.741Z,3.95
2022-10-05T18:04:42.981Z,4.55
2022-10-05T18:07:24.896Z,4.50
2022-10-05T18:10:00.852Z,5.00
2022-10-05T18:12:43.322Z,4.75
2022-10-05T18:15:45.000Z,4.30
2022-10-05T18:18:57.535Z,3.92
2022-10-05T18:21:35.509Z,4.07
2022-10-05T18:24:30.026Z,4.60
2022-10-05T18:27:13.074Z,4.30
2022-10-05T18:30:06.076Z,4.32
2022-10-05T18:32:57.093Z,4.68
2022-10-05T18:35:33.904Z,4.63
2022-10-05T18:38:14.998Z,4.07
2022-10-05T18:40:54.587Z,4.53
2022-10-05T18:43:33.995Z,4.10
2022-10-05T18:46:17.979Z,4.63
2022-10-05T18:49:02.786Z,4.03
2022-10-05T18:51:39.903Z,4.10
2022-10-05T18:54:26.007Z,3.90
2022-10-05T18:56:56.791Z,2.60
2022-10-05T18:59:40.057Z,2.40
2022-10-05T19:02:23.321Z,2.20
2022-10-05T19:05:23.783Z,2.78
2022-10-05T19:08:10.763Z,2.30
2022-10-05T19:10:47.893Z,2.38
2022-10-05T19:13:42.084Z,2.35
2022-10-05T19:19:16.596Z,2.53
2022-10-05T19:21:53.562Z,2.60
2022-10-05T19:24:55.252Z,2.30
2022-10-05T19:27:43.431Z,1.60
2022-10-05T19:30:23.151Z,2.17
2022-10-05T19:33:10.118Z,2.08
2022-10-05T19:35:53.716Z,2.10
2022-10-05T19:38:31.626Z,2.17
2022-10-05T19:41:08.887Z,2.40
2022-10-05T19:43:59.851Z,2.92
2022-10-05T19:46:44.332Z,2.55
2022-10-05T19:49:14.265Z,2.60
2022-10-05T19:51:52.451Z,2.45
2022-10-05T19:54:29.167Z,2.40
2022-10-05T19:57:02.646Z,2.08
2022-10-05T19:59:34.948Z,2.65
2022-10-05T20:02:05.262Z,2.70
2022-10-05T20:04:39.123Z,2.42
2022-10-05T20:07:10.822Z,2.53
2022-10-05T20:09:53.867Z,1.90
2022-10-05T20:12:24.577Z,2.60
2022-10-05T20:15:34.499Z,2.15
2022-10-05T20:18:47.363Z,2.05
2022-10-05T20:21:39.189Z,1.73
2022-10-05T20:24:10.145Z,1.67
2022-10-05T20:26:53.056Z,1.80
2022-10-05T20:29:22.646Z,1.63
2022-10-05T20:31:54.949Z,1.90
2022-10-05T20:34:24.990Z,2.35
2022-10-05T20:36:55.132Z,1.80
2022-10-05T20:39:24.891Z,1.23
2022-10-05T20:41:54.592Z,1.73
2022-10-05T20:44:24.225Z,1.63
2022-10-05T20:46:58.448Z,1.92
2022-10-05T20:49:28.603Z,2.28
2022-10-05T20:51:58.344Z,2.42
2022-10-05T20:54:29.251Z,1.48
2022-10-05T20:56:59.436Z,1.60
2022-10-05T20:59:29.679Z,1.70
2022-10-05T21:02:02.255Z,1.85
2022-10-05T21:04:42.885Z,2.42
2022-10-05T21:07:12.786Z,2.10
2022-10-05T21:09:43.785Z,2.38
2022-10-05T21:12:14.114Z,2.70
2022-10-05T21:14:43.770Z,3.38
2022-10-05T21:17:16.304Z,3.50
2022-10-05T21:19:47.137Z,2.88
2022-10-05T21:22:17.345Z,1.90
2022-10-05T21:24:47.081Z,3.28
2022-10-05T21:27:17.579Z,3.00
2022-10-05T21:29:47.790Z,4.32
2022-10-05T21:32:22.900Z,4.82
2022-10-05T21:34:52.623Z,2.45
2022-10-05T21:37:22.946Z,3.33
2022-10-05T21:39:53.074Z,2.83
2022-10-05T21:42:23.690Z,2.65
2022-10-05T21:44:53.529Z,2.20
2022-10-05T21:47:26.419Z,2.85
2022-10-05T21:49:56.761Z,2.30
2022-10-05T21:52:26.542Z,2.95
2022-10-05T21:54:56.381Z,2.90
2022-10-05T21:57:26.154Z,2.90
2022-10-05T21:59:55.966Z,2.40
2022-10-05T22:02:28.572Z,2.63
2022-10-05T22:04:58.280Z,2.97
2022-10-05T22:07:29.098Z,2.40
2022-10-05T22:09:58.709Z,3.22
2022-10-05T22:12:28.495Z,2.22
2022-10-05T22:14:58.083Z,1.98
2022-10-05T22:17:32.138Z,2.38
2022-10-05T22:20:02.357Z,2.17
2022-10-05T22:22:33.223Z,2.42
2022-10-05T22:25:03.292Z,2.38
2022-10-05T22:27:33.497Z,2.20
2022-10-05T22:30:06.638Z,2.03
2022-10-05T22:32:38.799Z,3.00
2022-10-05T22:35:11.656Z,2.10
2022-10-05T22:37:41.691Z,2.53
2022-10-05T22:40:12.405Z,2.13
2022-10-05T22:42:42.666Z,2.50
2022-10-05T22:45:12.377Z,2.40
2022-10-05T22:47:44.956Z,2.25
2022-10-05T22:50:14.560Z,2.00
2022-10-05T22:52:44.598Z,2.80
2022-10-05T22:55:14.209Z,2.20
2022-10-05T22:57:44.779Z,2.35
2022-10-05T23:00:15.887Z,3.53
2022-10-05T23:02:48.322Z,2.05
2022-10-05T23:05:18.129Z,2.90
2022-10-05T23:07:49.384Z,2.67
2022-10-05T23:10:21.684Z,2.75
2022-10-05T23:13:00.784Z,2.13
2022-10-05T23:15:30.715Z,2.53
2022-10-05T23:18:02.889Z,2.72
2022-10-05T23:20:32.526Z,2.10
2022-10-05T23:23:02.285Z,3.30
2022-10-05T23:25:31.891Z,3.15
2022-10-05T23:28:01.635Z,2.95
2022-10-05T23:30:31.513Z,2.78
2022-10-05T23:33:03.781Z,2.03
2022-10-05T23:35:33.449Z,2.72
2022-10-05T23:38:03.096Z,2.50
2022-10-05T23:40:32.662Z,2.75
2022-10-05T23:43:02.334Z,1.92
2022-10-05T23:45:31.910Z,2.22
2022-10-05T23:48:06.491Z,3.38
2022-10-05T23:50:36.197Z,1.60
2022-10-05T23:53:05.706Z,2.42
2022-10-05T23:55:35.635Z,2.10
2022-10-05T23:58:05.177Z,1.70
